createdAt,value
2022-12-12T00:00:04.856Z,944.22
2022-12-12T00:01:04.919Z,944.19
2022-12-12T00:02:04.810Z,944.21
2022-12-12T00:03:04.886Z,944.15
2022-12-12T00:04:04.765Z,944.16
2022-12-12T00:05:04.743Z,944.19
2022-12-12T00:06:04.721Z,944.17
2022-12-12T00:07:04.698Z,944.2
2022-12-12T00:08:04.717Z,944.15
2022-12-12T00:09:04.653Z,944.2
2022-12-12T00:10:04.635Z,944.19
2022-12-12T00:11:04.609Z,944.25
2022-12-12T00:12:04.586Z,944.23
2022-12-12T00:13:04.567Z,944.25
2022-12-12T00:14:04.540Z,944.21
2022-12-12T00:15:10.702Z,944.17
2022-12-12T00:16:09.800Z,944.22
2022-12-12T00:17:04.475Z,944.23
2022-12-12T00:18:09.539Z,944.21
2022-12-12T00:19:04.458Z,944.2
2022-12-12T00:20:04.413Z,944.16
2022-12-12T00:21:04.384Z,944.26
2022-12-12T00:22:04.364Z,944.22
2022-12-12T00:23:04.340Z,944.19
2022-12-12T00:24:04.318Z,944.21
2022-12-12T00:25:04.294Z,944.22
2022-12-12T00:26:04.274Z,944.21
2022-12-12T00:27:04.254Z,944.24
2022-12-12T00:28:04.231Z,944.24
2022-12-12T00:29:04.206Z,944.25
2022-12-12T00:30:04.185Z,944.32
2022-12-12T00:31:04.180Z,944.33
2022-12-12T00:32:04.141Z,944.26
2022-12-12T00:33:04.118Z,944.26
2022-12-12T00:34:04.095Z,944.27
2022-12-12T00:35:04.103Z,944.22
2022-12-12T00:36:05.073Z,944.21
2022-12-12T00:37:05.052Z,944.3
2022-12-12T00:38:05.029Z,944.27
2022-12-12T00:39:05.010Z,944.29
2022-12-12T00:40:04.985Z,944.3
2022-12-12T00:41:04.963Z,944.33
2022-12-12T00:42:04.943Z,944.3
2022-12-12T00:43:04.919Z,944.29
2022-12-12T00:44:04.896Z,944.31
2022-12-12T00:45:04.874Z,944.28
2022-12-12T00:46:04.892Z,944.26
2022-12-12T00:47:04.828Z,944.31
2022-12-12T00:48:04.804Z,944.32
2022-12-12T00:49:04.785Z,944.25
2022-12-12T00:50:04.764Z,944.26
2022-12-12T00:51:04.772Z,944.34
2022-12-12T00:52:04.715Z,944.34
2022-12-12T00:53:04.694Z,944.34
2022-12-12T00:54:04.671Z,944.29
2022-12-12T00:55:04.720Z,944.31
2022-12-12T00:56:04.626Z,944.36
2022-12-12T00:57:04.605Z,944.38
2022-12-12T00:58:04.580Z,944.41
2022-12-12T00:59:04.562Z,944.41
2022-12-12T01:00:04.536Z,944.4
2022-12-12T01:01:04.516Z,944.4
2022-12-12T01:02:04.580Z,944.41
2022-12-12T01:03:04.542Z,944.41
2022-12-12T01:04:04.448Z,944.44
2022-12-12T01:05:04.468Z,944.43
2022-12-12T01:06:04.404Z,944.45
2022-12-12T01:07:04.405Z,944.43
2022-12-12T01:08:04.445Z,944.38
2022-12-12T01:09:04.335Z,944.43
2022-12-12T01:10:04.313Z,944.41
2022-12-12T01:11:04.291Z,944.34
2022-12-12T01:12:04.272Z,944.41
2022-12-12T01:13:04.243Z,944.42
2022-12-12T01:14:04.228Z,944.43
2022-12-12T01:15:04.198Z,944.46
2022-12-12T01:16:04.216Z,944.43
2022-12-12T01:17:04.155Z,944.4
2022-12-12T01:18:04.134Z,944.46
2022-12-12T01:19:04.110Z,944.44
2022-12-12T01:20:04.087Z,944.47
2022-12-12T01:21:04.067Z,944.48
2022-12-12T01:22:04.045Z,944.43
2022-12-12T01:23:04.042Z,944.45
2022-12-12T01:24:04.002Z,944.44
2022-12-12T01:25:03.976Z,944.46
2022-12-12T01:26:03.954Z,944.4
2022-12-12T01:27:03.930Z,944.47
2022-12-12T01:28:03.908Z,944.46
2022-12-12T01:29:03.884Z,944.47
2022-12-12T01:30:03.865Z,944.51
2022-12-12T01:31:03.918Z,944.47
2022-12-12T01:32:03.821Z,944.49
2022-12-12T01:33:03.794Z,944.5
2022-12-12T01:34:03.774Z,944.53
2022-12-12T01:35:03.749Z,944.58
2022-12-12T01:36:03.729Z,944.53
2022-12-12T01:37:03.704Z,944.52
2022-12-12T01:38:03.689Z,944.5
2022-12-12T01:39:03.738Z,944.53
2022-12-12T01:40:03.640Z,944.46
2022-12-12T01:41:03.617Z,944.49
2022-12-12T01:42:03.594Z,944.52
2022-12-12T01:43:03.569Z,944.5
2022-12-12T01:44:03.550Z,944.53
2022-12-12T01:45:03.529Z,944.46
2022-12-12T01:46:03.502Z,944.49
2022-12-12T01:47:03.481Z,944.46
2022-12-12T01:48:05.294Z,944.52
2022-12-12T01:49:03.438Z,944.48
2022-12-12T01:50:03.412Z,944.51
2022-12-12T01:51:03.387Z,944.56
2022-12-12T01:52:03.368Z,944.58
2022-12-12T01:53:03.343Z,944.59
2022-12-12T01:54:03.323Z,944.57
2022-12-12T01:55:03.328Z,944.54
2022-12-12T01:56:03.289Z,944.55
2022-12-12T01:57:03.255Z,944.53
2022-12-12T01:58:03.369Z,944.6
2022-12-12T01:59:03.344Z,944.56
2022-12-12T02:00:03.326Z,944.57
2022-12-12T02:01:03.337Z,944.61
2022-12-12T02:02:03.334Z,944.63
2022-12-12T02:03:03.256Z,944.59
2022-12-12T02:04:03.230Z,944.58
2022-12-12T02:05:03.211Z,944.59
2022-12-12T02:06:03.190Z,944.58
2022-12-12T02:07:03.554Z,944.57
2022-12-12T02:08:03.559Z,944.63
2022-12-12T02:09:03.508Z,944.64
2022-12-12T02:10:03.488Z,944.62
2022-12-12T02:11:03.491Z,944.62
2022-12-12T02:12:03.439Z,944.63
2022-12-12T02:13:03.418Z,944.64
2022-12-12T02:14:03.400Z,944.68
2022-12-12T02:15:03.383Z,944.71
2022-12-12T02:16:03.466Z,944.65
2022-12-12T02:17:03.329Z,944.65
2022-12-12T02:18:03.756Z,944.66
2022-12-12T02:19:03.290Z,944.65
2022-12-12T02:20:03.260Z,944.67
2022-12-12T02:21:03.238Z,944.65
2022-12-12T02:22:03.213Z,944.66
2022-12-12T02:23:03.194Z,944.6
2022-12-12T02:24:03.170Z,944.65
2022-12-12T02:25:03.153Z,944.63
2022-12-12T02:26:03.124Z,944.63
2022-12-12T02:27:03.131Z,944.67
2022-12-12T02:28:03.081Z,944.64
2022-12-12T02:29:03.061Z,944.68
2022-12-12T02:30:03.042Z,944.65
2022-12-12T02:31:03.080Z,944.69
2022-12-12T02:32:02.990Z,944.7
2022-12-12T02:33:02.969Z,944.72
2022-12-12T02:34:02.950Z,944.69
2022-12-12T02:35:02.925Z,944.69
2022-12-12T02:36:02.899Z,944.71
2022-12-12T02:37:02.884Z,944.66
2022-12-12T02:38:02.857Z,944.68
2022-12-12T02:39:02.835Z,944.67
2022-12-12T02:40:02.809Z,944.68
2022-12-12T02:41:02.788Z,944.7
2022-12-12T02:42:02.767Z,944.69
2022-12-12T02:43:02.772Z,944.69
2022-12-12T02:44:02.719Z,944.74
2022-12-12T02:45:02.700Z,944.71
2022-12-12T02:46:02.676Z,944.71
2022-12-12T02:47:02.692Z,944.75
2022-12-12T02:48:02.630Z,944.71
2022-12-12T02:49:02.612Z,944.77
2022-12-12T02:50:02.585Z,944.78
2022-12-12T02:51:02.563Z,944.79
2022-12-12T02:52:02.541Z,944.75
2022-12-12T02:53:02.519Z,944.8
2022-12-12T02:54:02.499Z,944.78
2022-12-12T02:55:02.476Z,944.76
2022-12-12T02:56:02.454Z,944.77
2022-12-12T02:57:02.433Z,944.79
2022-12-12T02:58:02.408Z,944.78
2022-12-12T02:59:02.531Z,944.8
2022-12-12T03:00:02.380Z,944.78
2022-12-12T03:01:02.349Z,944.82
2022-12-12T03:02:02.371Z,944.85
2022-12-12T03:03:02.296Z,944.79
2022-12-12T03:04:02.275Z,944.81
2022-12-12T03:05:02.251Z,944.81
2022-12-12T03:06:02.237Z,944.81
2022-12-12T03:07:02.211Z,944.85
2022-12-12T03:08:02.244Z,944.79
2022-12-12T03:09:02.160Z,944.81
2022-12-12T03:10:02.167Z,944.77
2022-12-12T03:11:02.114Z,944.79
2022-12-12T03:12:02.096Z,944.82
2022-12-12T03:13:02.072Z,944.77
2022-12-12T03:14:02.049Z,944.79
2022-12-12T03:15:02.051Z,944.77
2022-12-12T03:16:02.099Z,944.77
2022-12-12T03:17:01.981Z,944.72
2022-12-12T03:18:01.960Z,944.72
2022-12-12T03:19:01.939Z,944.78
2022-12-12T03:20:01.915Z,944.74
2022-12-12T03:21:01.892Z,944.77
2022-12-12T03:22:01.871Z,944.75
2022-12-12T03:23:01.846Z,944.73
2022-12-12T03:24:01.834Z,944.73
2022-12-12T03:25:01.801Z,944.74
2022-12-12T03:26:01.782Z,944.77
2022-12-12T03:27:01.757Z,944.75
2022-12-12T03:28:01.734Z,944.82
2022-12-12T03:29:01.712Z,944.74
2022-12-12T03:30:01.702Z,944.73
2022-12-12T03:31:01.692Z,944.79
2022-12-12T03:32:01.648Z,944.76
2022-12-12T03:33:01.623Z,944.77
2022-12-12T03:49:50.082Z,944.84
2022-12-12T03:50:50.034Z,944.87
2022-12-12T03:51:50.009Z,944.83
2022-12-12T03:52:49.985Z,944.86
2022-12-12T03:53:49.957Z,944.85
2022-12-12T03:54:49.937Z,944.86
2022-12-12T03:55:49.914Z,944.91
2022-12-12T03:56:49.891Z,944.88
2022-12-12T03:57:49.867Z,944.84
2022-12-12T03:58:49.846Z,944.86
2022-12-12T03:59:49.820Z,944.88
2022-12-12T04:00:49.850Z,944.85
2022-12-12T04:01:49.902Z,944.83
2022-12-12T04:02:50.410Z,944.86
2022-12-12T04:03:50.388Z,944.89
2022-12-12T04:04:50.365Z,944.86
2022-12-12T04:05:50.372Z,944.88
2022-12-12T04:06:50.320Z,944.92
2022-12-12T04:07:50.339Z,944.92
2022-12-12T04:08:50.274Z,944.9
2022-12-12T04:09:50.254Z,944.92
2022-12-12T04:10:50.232Z,944.95
2022-12-12T04:11:50.206Z,944.91
2022-12-12T04:12:50.183Z,944.93
2022-12-12T04:13:50.159Z,944.88
2022-12-12T04:14:50.143Z,944.95
2022-12-12T04:15:50.115Z,944.91
2022-12-12T04:16:50.110Z,944.92
2022-12-12T04:17:50.069Z,944.92
2022-12-12T04:18:50.049Z,944.92
2022-12-12T04:19:50.080Z,944.95
2022-12-12T04:20:50.006Z,944.92
2022-12-12T04:21:50.009Z,944.91
2022-12-12T04:22:49.959Z,944.94
2022-12-12T04:23:49.935Z,944.96
2022-12-12T04:24:49.915Z,944.96
2022-12-12T04:25:49.892Z,945.01
2022-12-12T04:26:49.874Z,945.03
2022-12-12T04:27:49.848Z,945
2022-12-12T04:28:49.823Z,944.98
2022-12-12T04:29:49.802Z,944.97
2022-12-12T04:30:49.780Z,944.93
2022-12-12T04:31:49.803Z,944.95
2022-12-12T04:32:49.734Z,945.01
2022-12-12T04:33:49.717Z,944.97
2022-12-12T04:34:49.691Z,944.97
2022-12-12T04:35:49.666Z,944.98
2022-12-12T04:36:49.645Z,944.95
2022-12-12T04:37:49.652Z,945
2022-12-12T04:38:49.602Z,944.99
2022-12-12T04:39:49.577Z,945
2022-12-12T04:40:49.556Z,945.08
2022-12-12T04:41:49.534Z,945.03
2022-12-12T04:42:49.511Z,945.06
2022-12-12T04:43:49.489Z,945.1
2022-12-12T04:44:49.466Z,945.1
2022-12-12T04:45:49.480Z,945.14
2022-12-12T04:46:49.422Z,945.12
2022-12-12T04:47:49.401Z,945.17
2022-12-12T04:48:51.796Z,945.14
2022-12-12T04:49:49.355Z,945.15
2022-12-12T04:50:49.332Z,945.17
2022-12-12T04:51:49.312Z,945.16
2022-12-12T04:52:49.286Z,945.12
2022-12-12T04:53:49.296Z,945.18
2022-12-12T04:54:49.240Z,945.14
2022-12-12T04:55:49.223Z,945.14
2022-12-12T04:56:49.197Z,945.12
2022-12-12T04:57:49.175Z,945.14
2022-12-12T04:58:49.153Z,945.15
2022-12-12T04:59:49.133Z,945.18
2022-12-12T05:00:49.157Z,945.15
2022-12-12T05:01:53.033Z,945.13
2022-12-12T05:02:49.095Z,945.1
2022-12-12T05:03:49.040Z,945.13
2022-12-12T05:04:49.016Z,945.11
2022-12-12T05:05:48.996Z,945.1
2022-12-12T05:06:48.973Z,945.15
2022-12-12T05:07:48.992Z,945.16
2022-12-12T05:08:48.928Z,945.15
2022-12-12T05:09:48.933Z,945.14
2022-12-12T05:10:48.884Z,945.11
2022-12-12T05:11:48.863Z,945.1
2022-12-12T05:12:48.838Z,945.12
2022-12-12T05:13:48.816Z,945.15
2022-12-12T05:14:48.794Z,945.24
2022-12-12T05:15:48.773Z,945.21
2022-12-12T05:16:48.798Z,945.2
2022-12-12T05:17:48.729Z,945.22
2022-12-12T05:18:48.702Z,945.15
2022-12-12T05:19:48.683Z,945.22
2022-12-12T05:20:48.657Z,945.19
2022-12-12T05:21:48.636Z,945.22
2022-12-12T05:22:48.611Z,945.25
2022-12-12T05:23:48.595Z,945.26
2022-12-12T05:24:48.567Z,945.25
2022-12-12T05:25:48.683Z,945.26
2022-12-12T05:26:48.522Z,945.29
2022-12-12T05:27:48.501Z,945.33
2022-12-12T05:28:48.477Z,945.33
2022-12-12T05:29:48.455Z,945.35
2022-12-12T05:30:48.445Z,945.34
2022-12-12T05:31:48.411Z,945.37
2022-12-12T05:32:48.391Z,945.32
2022-12-12T05:33:48.364Z,945.37
2022-12-12T05:34:48.346Z,945.39
2022-12-12T05:35:48.324Z,945.37
2022-12-12T05:36:48.302Z,945.35
2022-12-12T05:37:51.851Z,945.35
2022-12-12T05:38:48.256Z,945.37
2022-12-12T05:39:48.233Z,945.38
2022-12-12T05:40:48.211Z,945.38
2022-12-12T05:41:48.210Z,945.39
2022-12-12T05:42:48.167Z,945.39
2022-12-12T05:43:48.146Z,945.4
2022-12-12T05:44:48.123Z,945.4
2022-12-12T05:45:48.120Z,945.41
2022-12-12T05:46:48.079Z,945.42
2022-12-12T05:47:48.054Z,945.42
2022-12-12T05:48:48.035Z,945.41
2022-12-12T05:49:48.010Z,945.4
2022-12-12T05:50:47.992Z,945.43
2022-12-12T05:51:47.964Z,945.41
2022-12-12T05:52:47.943Z,945.41
2022-12-12T05:53:47.923Z,945.46
2022-12-12T05:54:47.900Z,945.47
2022-12-12T05:55:47.876Z,945.49
2022-12-12T05:56:47.856Z,945.48
2022-12-12T05:57:47.861Z,945.48
2022-12-12T05:58:47.812Z,945.48
2022-12-12T05:59:47.789Z,945.5
2022-12-12T06:00:47.766Z,945.5
2022-12-12T06:01:47.743Z,945.51
2022-12-12T06:02:47.744Z,945.52
2022-12-12T06:03:47.738Z,945.55
2022-12-12T06:04:47.682Z,945.53
2022-12-12T06:05:47.659Z,945.49
2022-12-12T06:06:47.634Z,945.52
2022-12-12T06:07:47.649Z,945.54
2022-12-12T06:08:47.589Z,945.52
2022-12-12T06:09:47.568Z,945.54
2022-12-12T06:10:47.545Z,945.55
2022-12-12T06:11:47.522Z,945.56
2022-12-12T06:12:47.506Z,945.58
2022-12-12T06:13:47.507Z,945.56
2022-12-12T06:14:47.459Z,945.53
2022-12-12T06:15:47.482Z,945.56
2022-12-12T06:16:47.413Z,945.56
2022-12-12T06:17:47.392Z,945.6
2022-12-12T06:18:47.370Z,945.57
2022-12-12T06:19:47.382Z,945.57
2022-12-12T06:20:47.324Z,945.63
2022-12-12T06:21:47.300Z,945.59
2022-12-12T06:22:52.082Z,945.57
2022-12-12T06:23:47.258Z,945.56
2022-12-12T06:24:47.235Z,945.6
2022-12-12T06:25:47.215Z,945.54
2022-12-12T06:26:47.190Z,945.53
2022-12-12T06:27:47.174Z,945.57
2022-12-12T06:28:47.144Z,945.58
2022-12-12T06:29:47.146Z,945.58
2022-12-12T06:30:47.124Z,945.53
2022-12-12T06:31:47.079Z,945.52
2022-12-12T06:32:47.061Z,945.5
2022-12-12T06:33:47.044Z,945.52
2022-12-12T06:34:47.012Z,945.49
2022-12-12T06:35:46.991Z,945.54
2022-12-12T06:36:46.970Z,945.55
2022-12-12T06:37:46.948Z,945.57
2022-12-12T06:38:46.927Z,945.55
2022-12-12T06:39:46.904Z,945.56
2022-12-12T06:40:46.881Z,945.57
2022-12-12T06:41:46.859Z,945.58
2022-12-12T06:42:48.632Z,945.57
2022-12-12T06:43:46.815Z,945.58
2022-12-12T06:44:46.794Z,945.57
2022-12-12T06:45:46.801Z,945.59
2022-12-12T06:46:46.807Z,945.6
2022-12-12T06:47:46.725Z,945.61
2022-12-12T06:48:46.703Z,945.6
2022-12-12T06:49:46.689Z,945.6
2022-12-12T06:50:46.659Z,945.57
2022-12-12T06:51:46.636Z,945.59
2022-12-12T06:52:46.613Z,945.62
2022-12-12T06:53:46.592Z,945.64
2022-12-12T06:54:46.572Z,945.66
2022-12-12T06:55:46.562Z,945.63
2022-12-12T06:56:48.576Z,945.71
2022-12-12T06:57:46.502Z,945.65
2022-12-12T06:58:46.479Z,945.71
2022-12-12T06:59:46.463Z,945.67
2022-12-12T07:00:46.438Z,945.68
2022-12-12T07:01:46.526Z,945.66
2022-12-12T07:02:46.444Z,945.75
2022-12-12T07:03:46.373Z,945.71
2022-12-12T07:04:46.348Z,945.75
2022-12-12T07:05:46.328Z,945.74
2022-12-12T07:06:46.302Z,945.74
2022-12-12T07:07:46.379Z,945.79
2022-12-12T07:08:46.258Z,945.86
2022-12-12T07:09:46.244Z,945.75
2022-12-12T07:10:46.214Z,945.78
2022-12-12T07:11:46.193Z,945.8
2022-12-12T07:12:47.779Z,945.84
2022-12-12T07:13:46.151Z,945.86
2022-12-12T07:14:46.152Z,945.87
2022-12-12T07:15:46.181Z,945.9
2022-12-12T07:16:46.084Z,945.9
2022-12-12T07:17:46.086Z,945.93
2022-12-12T07:18:46.039Z,945.92
2022-12-12T07:19:46.017Z,945.93
2022-12-12T07:20:45.993Z,945.88
2022-12-12T07:21:45.972Z,945.9
2022-12-12T07:22:45.951Z,945.88
2022-12-12T07:23:45.927Z,945.89
2022-12-12T07:24:45.952Z,945.86
2022-12-12T07:25:45.883Z,945.84
2022-12-12T07:26:45.861Z,945.88
2022-12-12T07:27:45.838Z,945.87
2022-12-12T07:28:45.822Z,945.91
2022-12-12T07:29:45.837Z,945.91
2022-12-12T07:30:45.838Z,945.89
2022-12-12T07:31:45.750Z,945.92
2022-12-12T07:32:45.727Z,945.95
2022-12-12T07:33:45.728Z,945.96
2022-12-12T07:34:45.693Z,945.93
2022-12-12T07:35:45.673Z,945.95
2022-12-12T07:36:45.650Z,945.96
2022-12-12T07:37:45.617Z,945.99
2022-12-12T07:38:45.596Z,945.98
2022-12-12T07:39:45.573Z,946
2022-12-12T07:40:45.553Z,946
2022-12-12T07:41:45.527Z,946.03
2022-12-12T07:42:45.507Z,946.02
2022-12-12T07:43:45.484Z,946.03
2022-12-12T07:44:45.462Z,946.03
2022-12-12T07:45:45.445Z,946.05
2022-12-12T07:46:45.444Z,946.09
2022-12-12T07:47:45.397Z,946.04
2022-12-12T07:48:45.373Z,946.07
2022-12-12T07:49:45.475Z,946.11
2022-12-12T07:50:45.331Z,946.08
2022-12-12T07:51:48.863Z,946.11
2022-12-12T07:52:45.286Z,946.13
2022-12-12T07:53:45.266Z,946.11
2022-12-12T07:54:45.243Z,946.14
2022-12-12T07:55:45.219Z,946.17
2022-12-12T07:56:45.199Z,946.15
2022-12-12T07:57:45.177Z,946.12
2022-12-12T07:58:45.171Z,946.15
2022-12-12T07:59:45.130Z,946.22
2022-12-12T08:00:45.112Z,946.17
2022-12-12T08:01:45.161Z,946.16
2022-12-12T08:02:45.067Z,946.16
2022-12-12T08:03:45.047Z,946.2
2022-12-12T08:04:45.058Z,946.18
2022-12-12T08:05:45.029Z,946.19
2022-12-12T08:06:44.979Z,946.17
2022-12-12T08:07:44.955Z,946.16
2022-12-12T08:08:44.936Z,946.19
2022-12-12T08:09:44.913Z,946.19
2022-12-12T08:10:44.889Z,946.14
2022-12-12T08:11:46.756Z,946.2
2022-12-12T08:12:44.846Z,946.24
2022-12-12T08:13:44.833Z,946.16
2022-12-12T08:14:44.800Z,946.24
2022-12-12T08:15:44.816Z,946.22
2022-12-12T08:16:44.760Z,946.26
2022-12-12T08:17:44.740Z,946.26
2022-12-12T08:18:44.719Z,946.25
2022-12-12T08:19:44.696Z,946.29
2022-12-12T08:20:44.671Z,946.29
2022-12-12T08:21:44.681Z,946.32
2022-12-12T08:22:44.625Z,946.33
2022-12-12T08:23:44.607Z,946.29
2022-12-12T08:24:44.584Z,946.32
2022-12-12T08:25:44.565Z,946.31
2022-12-12T08:26:44.540Z,946.36
2022-12-12T08:27:44.517Z,946.4
2022-12-12T08:28:44.504Z,946.39
2022-12-12T08:29:44.473Z,946.38
2022-12-12T08:30:44.451Z,946.44
2022-12-12T08:31:44.487Z,946.41
2022-12-12T08:32:44.409Z,946.41
2022-12-12T08:33:44.386Z,946.45
2022-12-12T08:34:44.363Z,946.43
2022-12-12T08:35:44.343Z,946.45
2022-12-12T08:36:44.319Z,946.46
2022-12-12T08:37:44.338Z,946.42
2022-12-12T08:38:44.284Z,946.49
2022-12-12T08:39:44.255Z,946.44
2022-12-12T08:40:44.234Z,946.44
2022-12-12T08:41:44.217Z,946.49
2022-12-12T08:42:44.187Z,946.43
2022-12-12T08:43:44.165Z,946.44
2022-12-12T08:44:44.145Z,946.45
2022-12-12T08:45:44.126Z,946.49
2022-12-12T08:46:44.115Z,946.5
2022-12-12T08:47:44.081Z,946.51
2022-12-12T08:48:44.056Z,946.49
2022-12-12T08:49:44.044Z,946.49
2022-12-12T08:50:44.014Z,946.5
2022-12-12T08:51:43.991Z,946.47
2022-12-12T08:52:43.973Z,946.5
2022-12-12T08:53:43.975Z,946.55
2022-12-12T08:54:43.928Z,946.56
2022-12-12T08:55:43.905Z,946.57
2022-12-12T08:56:43.883Z,946.57
2022-12-12T08:57:43.860Z,946.58
2022-12-12T08:58:43.841Z,946.59
2022-12-12T08:59:43.818Z,946.61
2022-12-12T09:00:43.796Z,946.61
2022-12-12T09:01:43.863Z,946.64
2022-12-12T09:02:43.878Z,946.63
2022-12-12T09:03:43.729Z,946.67
2022-12-12T09:04:43.710Z,946.65
2022-12-12T09:05:43.686Z,946.68
2022-12-12T09:06:43.671Z,946.72
2022-12-12T09:07:43.644Z,946.7
2022-12-12T09:08:43.624Z,946.68
2022-12-12T09:09:43.625Z,946.72
2022-12-12T09:10:43.580Z,946.69
2022-12-12T09:11:43.556Z,946.73
2022-12-12T09:12:43.536Z,946.74
2022-12-12T09:13:43.515Z,946.73
2022-12-12T09:14:43.523Z,946.72
2022-12-12T09:15:43.469Z,946.75
2022-12-12T09:16:43.514Z,946.73
2022-12-12T09:17:43.429Z,946.73
2022-12-12T09:18:48.388Z,946.74
2022-12-12T09:19:43.442Z,946.67
2022-12-12T09:20:43.364Z,946.71
2022-12-12T09:21:43.343Z,946.7
2022-12-12T09:22:43.322Z,946.71
2022-12-12T09:23:43.304Z,946.74
2022-12-12T09:24:43.278Z,946.74
2022-12-12T09:25:43.279Z,946.71
2022-12-12T09:26:43.236Z,946.77
2022-12-12T09:27:43.211Z,946.73
2022-12-12T09:28:43.197Z,946.72
2022-12-12T09:29:43.183Z,946.77
2022-12-12T09:30:43.165Z,946.77
2022-12-12T09:31:43.188Z,946.8
2022-12-12T09:32:43.125Z,946.76
2022-12-12T09:33:43.095Z,946.73
2022-12-12T09:34:43.061Z,946.74
2022-12-12T09:35:43.037Z,946.75
2022-12-12T09:36:43.016Z,946.8
2022-12-12T09:37:42.993Z,946.77
2022-12-12T09:38:43.008Z,946.82
2022-12-12T09:39:42.949Z,946.77
2022-12-12T09:40:42.929Z,946.8
2022-12-12T09:41:42.927Z,946.78
2022-12-12T09:42:42.885Z,946.76
2022-12-12T09:43:42.862Z,946.77
2022-12-12T09:44:42.842Z,946.78
2022-12-12T09:45:42.863Z,946.74
2022-12-12T09:46:42.797Z,946.76
2022-12-12T09:47:42.776Z,946.74
2022-12-12T09:48:42.754Z,946.73
2022-12-12T09:49:43.877Z,946.78
2022-12-12T09:50:42.707Z,946.79
2022-12-12T09:51:42.690Z,946.8
2022-12-12T09:52:42.664Z,946.77
2022-12-12T09:53:42.644Z,946.77
2022-12-12T09:54:42.620Z,946.76
2022-12-12T09:55:42.601Z,946.76
2022-12-12T09:56:42.578Z,946.76
2022-12-12T09:57:42.604Z,946.77
2022-12-12T09:58:47.425Z,946.79
2022-12-12T09:59:43.274Z,946.74
2022-12-12T10:00:43.291Z,946.79
2022-12-12T10:01:43.303Z,946.81
2022-12-12T10:02:43.212Z,946.84
2022-12-12T10:03:43.211Z,946.83
2022-12-12T10:04:46.578Z,946.82
2022-12-12T10:05:43.142Z,946.82
2022-12-12T10:06:47.764Z,946.84
2022-12-12T10:07:47.767Z,946.85
2022-12-12T10:08:47.719Z,946.84
2022-12-12T10:09:47.701Z,946.87
2022-12-12T10:10:47.675Z,946.82
2022-12-12T10:11:47.657Z,946.82
2022-12-12T10:12:47.666Z,946.86
2022-12-12T10:13:47.611Z,946.85
2022-12-12T10:14:47.588Z,946.87
2022-12-12T10:15:47.569Z,946.88
2022-12-12T10:16:50.100Z,946.87
2022-12-12T10:17:47.524Z,946.88
2022-12-12T10:18:47.500Z,946.86
2022-12-12T10:19:47.482Z,946.88
2022-12-12T10:20:47.458Z,946.94
2022-12-12T10:21:47.436Z,946.84
2022-12-12T10:22:47.412Z,946.81
2022-12-12T10:23:47.391Z,946.84
2022-12-12T10:24:47.370Z,946.81
2022-12-12T10:25:47.351Z,946.79
2022-12-12T10:26:47.324Z,946.78
2022-12-12T10:27:47.311Z,946.81
2022-12-12T10:28:47.313Z,946.75
2022-12-12T10:29:47.265Z,946.78
2022-12-12T10:30:47.237Z,946.77
2022-12-12T10:31:47.302Z,946.8
2022-12-12T10:32:47.225Z,946.77
2022-12-12T10:33:47.176Z,946.83
2022-12-12T10:34:47.151Z,946.79
2022-12-12T10:35:47.131Z,946.79
2022-12-12T10:36:47.109Z,946.81
2022-12-12T10:37:47.087Z,946.8
2022-12-12T10:38:47.065Z,946.82
2022-12-12T10:39:47.042Z,946.83
2022-12-12T10:40:47.022Z,946.82
2022-12-12T10:41:47.000Z,946.83
2022-12-12T10:42:46.984Z,946.87
2022-12-12T10:43:46.955Z,946.85
2022-12-12T10:44:47.429Z,946.85
2022-12-12T10:45:47.029Z,946.83
2022-12-12T10:46:46.961Z,946.83
2022-12-12T10:47:46.872Z,946.85
2022-12-12T10:48:46.865Z,946.82
2022-12-12T10:49:46.825Z,946.83
2022-12-12T10:50:46.806Z,946.84
2022-12-12T10:51:46.784Z,946.85
2022-12-12T10:52:46.761Z,946.86
2022-12-12T10:53:46.739Z,946.84
2022-12-12T10:54:46.755Z,946.86
2022-12-12T10:55:46.703Z,946.83
2022-12-12T10:56:46.676Z,946.77
2022-12-12T10:57:46.655Z,946.84
2022-12-12T10:58:46.633Z,946.81
2022-12-12T10:59:46.609Z,946.87
2022-12-12T11:00:46.695Z,946.83
2022-12-12T11:02:08.809Z,946.83
2022-12-12T11:02:46.651Z,946.79
2022-12-12T11:03:46.524Z,946.8
2022-12-12T11:04:46.503Z,946.8
2022-12-12T11:05:46.480Z,946.79
2022-12-12T11:06:46.474Z,946.81
2022-12-12T11:07:46.474Z,946.8
2022-12-12T11:08:46.418Z,946.82
2022-12-12T11:09:46.395Z,946.81
2022-12-12T11:10:46.375Z,946.8
2022-12-12T11:11:46.352Z,946.85
2022-12-12T11:12:46.333Z,946.79
2022-12-12T11:13:46.319Z,946.81
2022-12-12T11:14:46.286Z,946.79
2022-12-12T11:15:46.269Z,946.85
2022-12-12T11:16:46.345Z,946.81
2022-12-12T11:17:46.222Z,946.84
2022-12-12T11:18:46.202Z,946.79
2022-12-12T11:19:46.181Z,946.79
2022-12-12T11:20:46.159Z,946.76
2022-12-12T11:21:46.136Z,946.73
2022-12-12T11:22:46.117Z,946.77
2022-12-12T11:23:46.099Z,946.78
2022-12-12T11:24:46.077Z,946.75
2022-12-12T11:25:46.055Z,946.76
2022-12-12T11:26:46.032Z,946.8
2022-12-12T11:27:46.008Z,946.78
2022-12-12T11:28:45.987Z,946.8
2022-12-12T11:29:45.964Z,946.76
2022-12-12T11:30:45.944Z,946.8
2022-12-12T11:31:45.946Z,946.81
2022-12-12T11:32:45.932Z,946.8
2022-12-12T11:33:45.880Z,946.86
2022-12-12T11:34:45.859Z,946.81
2022-12-12T11:35:47.835Z,946.84
2022-12-12T11:36:45.817Z,946.84
2022-12-12T11:37:45.799Z,946.84
2022-12-12T11:38:45.775Z,946.83
2022-12-12T11:39:45.755Z,946.85
2022-12-12T11:40:45.733Z,946.85
2022-12-12T11:41:45.737Z,946.87
2022-12-12T11:42:45.690Z,946.84
2022-12-12T11:43:45.669Z,946.82
2022-12-12T11:44:45.646Z,946.84
2022-12-12T11:45:45.666Z,946.83
2022-12-12T11:46:45.603Z,946.84
2022-12-12T11:47:45.583Z,946.87
2022-12-12T11:48:45.586Z,946.85
2022-12-12T11:49:45.549Z,946.84
2022-12-12T11:50:45.520Z,946.81
2022-12-12T11:51:46.373Z,946.79
2022-12-12T11:52:46.344Z,946.82
2022-12-12T11:53:46.323Z,946.84
2022-12-12T11:54:46.298Z,946.86
2022-12-12T11:55:46.279Z,946.79
2022-12-12T11:56:46.261Z,946.78
2022-12-12T11:57:46.239Z,946.81
2022-12-12T11:58:46.218Z,946.81
2022-12-12T11:59:46.194Z,946.79
2022-12-12T12:00:46.172Z,946.79
2022-12-12T12:01:46.156Z,946.84
2022-12-12T12:02:46.165Z,946.83
2022-12-12T12:03:46.110Z,946.8
2022-12-12T12:04:51.324Z,946.82
2022-12-12T12:05:46.068Z,946.8
2022-12-12T12:06:46.045Z,946.78
2022-12-12T12:07:46.169Z,946.82
2022-12-12T12:08:46.004Z,946.82
2022-12-12T12:09:45.986Z,946.83
2022-12-12T12:10:45.961Z,946.82
2022-12-12T12:11:45.942Z,946.81
2022-12-12T12:12:45.920Z,946.79
2022-12-12T12:13:45.898Z,946.81
2022-12-12T12:14:45.876Z,946.8
2022-12-12T12:15:45.856Z,946.78
2022-12-12T12:16:45.865Z,946.82
2022-12-12T12:17:45.821Z,946.79
2022-12-12T12:18:45.789Z,946.79
2022-12-12T12:19:45.769Z,946.8
2022-12-12T12:20:45.781Z,946.81
2022-12-12T12:21:45.730Z,946.83
2022-12-12T12:22:45.706Z,946.8
2022-12-12T12:23:50.205Z,946.81
2022-12-12T12:24:45.664Z,946.82
2022-12-12T12:25:46.273Z,946.83
2022-12-12T12:26:46.252Z,946.8
2022-12-12T12:27:46.227Z,946.77
2022-12-12T12:28:46.208Z,946.8
2022-12-12T12:29:46.184Z,946.81
2022-12-12T12:30:46.202Z,946.76
2022-12-12T12:31:46.143Z,946.77
2022-12-12T12:32:46.124Z,946.73
2022-12-12T12:33:46.098Z,946.77
2022-12-12T12:34:46.082Z,946.77
2022-12-12T12:35:46.056Z,946.8
2022-12-12T12:36:46.067Z,946.77
2022-12-12T12:37:46.306Z,946.75
2022-12-12T12:38:46.288Z,946.79
2022-12-12T12:39:46.263Z,946.77
2022-12-12T12:40:46.243Z,946.81
2022-12-12T12:41:46.221Z,946.78
2022-12-12T12:42:49.560Z,946.79
2022-12-12T12:43:46.181Z,946.8
2022-12-12T12:44:46.159Z,946.8
2022-12-12T12:45:46.161Z,946.81
2022-12-12T12:46:46.116Z,946.82